createdAt,value
2023-02-22T00:00:53.174Z,77.55
2023-02-22T00:02:11.668Z,77.54
2023-02-22T00:03:26.213Z,77.42
2023-02-22T00:04:29.301Z,77.47
2023-02-22T00:05:32.372Z,77.44
2023-02-22T00:06:35.662Z,77.56
2023-02-22T00:07:39.025Z,77.86
2023-02-22T00:08:43.384Z,77.70
2023-02-22T00:09:46.527Z,78.11
2023-02-22T00:10:51.841Z,78.13
2023-02-22T00:11:55.153Z,78.40
2023-02-22T00:12:58.329Z,78.61
2023-02-22T00:14:02.807Z,78.53
2023-02-22T00:15:06.031Z,78.49
2023-02-22T00:16:09.212Z,78.57
2023-02-22T00:17:14.026Z,78.64
2023-02-22T00:18:19.764Z,78.65
2023-02-22T00:19:22.960Z,78.75
2023-02-22T00:20:26.253Z,78.68
2023-02-22T00:21:31.516Z,78.64
2023-02-22T00:22:34.830Z,78.56
2023-02-22T00:23:40.179Z,78.70
2023-02-22T00:24:43.181Z,78.75
2023-02-22T00:25:51.704Z,78.82
2023-02-22T00:26:57.333Z,79.03
2023-02-22T00:28:00.863Z,78.98
2023-02-22T00:29:05.028Z,79.16
2023-02-22T00:30:09.758Z,78.88
2023-02-22T00:31:15.789Z,78.81
2023-02-22T00:32:19.615Z,78.91
2023-02-22T00:33:23.907Z,79.19
2023-02-22T00:34:27.075Z,79.55
2023-02-22T00:35:31.427Z,79.97
2023-02-22T00:36:34.908Z,80.03
2023-02-22T00:37:42.323Z,80.13
2023-02-22T00:38:46.989Z,80.22
2023-02-22T00:39:51.218Z,80.10
2023-02-22T00:40:56.000Z,80.12
2023-02-22T00:42:01.963Z,80.30
2023-02-22T00:43:06.626Z,80.22
2023-02-22T00:44:09.651Z,80.62
2023-02-22T00:45:14.771Z,80.49
2023-02-22T00:46:18.033Z,80.66
2023-02-22T00:47:21.255Z,80.46
2023-02-22T00:48:26.404Z,80.10
2023-02-22T00:49:29.624Z,80.43
2023-02-22T00:50:34.124Z,80.94
2023-02-22T00:51:37.472Z,80.68
2023-02-22T00:52:40.769Z,80.67
2023-02-22T00:53:43.880Z,80.73
2023-02-22T00:54:47.036Z,80.72
2023-02-22T00:55:50.765Z,80.28
2023-02-22T00:56:54.709Z,79.95
2023-02-22T00:57:58.883Z,80.33
2023-02-22T00:59:02.345Z,80.99
2023-02-22T01:00:12.927Z,81.10
2023-02-22T01:01:16.599Z,81.44
2023-02-22T01:02:20.016Z,81.43
2023-02-22T01:03:23.391Z,82.42
2023-02-22T01:04:26.798Z,82.72
2023-02-22T01:05:31.011Z,82.95
2023-02-22T01:06:34.545Z,82.53
2023-02-22T01:07:37.654Z,83.01
2023-02-22T01:08:45.286Z,82.98
2023-02-22T01:09:48.562Z,82.87
2023-02-22T01:10:52.896Z,83.15
2023-02-22T01:11:57.213Z,82.63
2023-02-22T01:13:01.705Z,82.69
2023-02-22T01:14:04.746Z,83.12
2023-02-22T01:15:12.340Z,83.22
2023-02-22T01:16:15.634Z,83.11
2023-02-22T01:17:18.741Z,83.05
2023-02-22T01:18:23.748Z,83.53
2023-02-22T01:19:27.428Z,83.33
2023-02-22T01:20:30.511Z,83.12
2023-02-22T01:21:33.565Z,83.28
2023-02-22T01:22:37.831Z,83.04
2023-02-22T01:23:40.942Z,82.42
2023-02-22T01:24:44.145Z,82.73
2023-02-22T01:25:47.481Z,82.71
2023-02-22T01:26:53.072Z,82.74
2023-02-22T01:27:57.665Z,82.92
2023-02-22T01:29:01.305Z,82.86
2023-02-22T01:30:08.849Z,83.24
2023-02-22T01:31:12.923Z,83.62
2023-02-22T01:32:16.253Z,83.72
2023-02-22T01:33:19.509Z,83.18
2023-02-22T01:34:24.024Z,82.56
2023-02-22T01:35:30.826Z,82.83
2023-02-22T01:36:33.741Z,83.59
2023-02-22T01:37:37.027Z,83.89
2023-02-22T01:38:42.706Z,83.72
2023-02-22T01:39:46.189Z,83.54
2023-02-22T01:40:51.750Z,84.05
2023-02-22T01:41:55.345Z,84.13
2023-02-22T01:43:02.092Z,84.90
2023-02-22T01:44:34.467Z,84.82
2023-02-22T01:46:08.683Z,84.74
2023-02-22T01:47:11.952Z,85.42
2023-02-22T01:48:44.888Z,85.52
2023-02-22T01:49:51.377Z,85.75
2023-02-22T01:50:59.766Z,86.26
2023-02-22T01:52:06.849Z,86.23
2023-02-22T01:53:14.693Z,85.81
2023-02-22T01:54:27.019Z,85.66
2023-02-22T01:55:31.304Z,86.01
2023-02-22T01:56:38.653Z,86.00
2023-02-22T01:57:41.738Z,86.21
2023-02-22T01:58:50.952Z,86.17
2023-02-22T01:59:58.419Z,85.74
2023-02-22T02:01:01.605Z,85.94
2023-02-22T02:02:05.521Z,86.10
2023-02-22T02:03:15.386Z,85.92
2023-02-22T02:04:25.842Z,86.04
2023-02-22T02:05:32.223Z,86.09
2023-02-22T02:06:37.880Z,85.86
2023-02-22T02:07:41.697Z,85.70
2023-02-22T02:09:00.085Z,85.59
2023-02-22T02:10:15.766Z,85.72
2023-02-22T02:11:25.857Z,85.70
2023-02-22T02:12:33.577Z,85.89
2023-02-22T02:13:37.121Z,85.82
2023-02-22T02:14:42.292Z,85.81
2023-02-22T02:15:46.192Z,85.79
2023-02-22T02:16:52.235Z,86.09
2023-02-22T02:17:57.454Z,86.06
2023-02-22T02:19:00.986Z,85.98
2023-02-22T02:20:20.943Z,86.01
2023-02-22T02:21:50.169Z,86.28
2023-02-22T02:23:24.736Z,86.44
2023-02-22T02:24:59.066Z,86.60
2023-02-22T02:26:43.691Z,86.32
2023-02-22T02:27:54.714Z,85.49
2023-02-22T02:29:07.403Z,85.60
2023-02-22T02:30:21.918Z,85.71
2023-02-22T02:32:02.785Z,85.51
2023-02-22T02:33:17.030Z,85.37
2023-02-22T02:34:24.641Z,85.06
2023-02-22T02:35:57.825Z,84.68
2023-02-22T02:37:29.145Z,84.96
2023-02-22T02:38:58.234Z,84.92
2023-02-22T02:40:12.824Z,84.62
2023-02-22T02:41:22.367Z,84.37
2023-02-22T02:42:34.102Z,84.34
2023-02-22T02:44:18.768Z,83.95
2023-02-22T02:45:33.950Z,84.00
2023-02-22T02:46:56.580Z,84.04
2023-02-22T02:48:02.754Z,83.99
2023-02-22T02:49:17.261Z,83.61
2023-02-22T02:50:35.673Z,83.34
2023-02-22T02:51:44.664Z,83.41
2023-02-22T02:52:49.660Z,83.58
2023-02-22T02:53:54.026Z,83.63
2023-02-22T02:54:58.472Z,83.68
2023-02-22T02:56:01.653Z,83.64
2023-02-22T02:57:05.215Z,83.33
2023-02-22T02:58:09.027Z,83.14
2023-02-22T02:59:28.944Z,83.34
2023-02-22T03:00:39.659Z,83.44
2023-02-22T03:01:54.755Z,83.51
2023-02-22T03:03:11.692Z,83.53
2023-02-22T03:04:36.528Z,83.38
2023-02-22T03:06:02.164Z,83.42
2023-02-22T03:07:34.402Z,83.58
2023-02-22T03:09:05.125Z,83.65
2023-02-22T03:10:39.307Z,83.74
2023-02-22T03:12:08.501Z,83.78
2023-02-22T03:13:29.304Z,83.49
2023-02-22T03:14:42.531Z,83.53
2023-02-22T03:16:03.070Z,83.58
2023-02-22T03:17:16.387Z,83.75
2023-02-22T03:18:50.421Z,83.99
2023-02-22T03:20:05.299Z,83.81
2023-02-22T03:21:18.476Z,84.07
2023-02-22T03:22:28.520Z,84.25
2023-02-22T03:23:54.627Z,84.20
2023-02-22T03:25:07.427Z,83.79
2023-02-22T03:26:15.252Z,83.58
2023-02-22T03:27:35.010Z,83.75
2023-02-22T03:28:41.583Z,83.72
2023-02-22T03:29:46.215Z,83.17
2023-02-22T03:30:58.969Z,82.84
2023-02-22T03:32:05.396Z,83.22
2023-02-22T03:33:20.664Z,83.40
2023-02-22T03:34:28.636Z,83.47
2023-02-22T03:35:36.018Z,83.36
2023-02-22T03:36:49.107Z,83.39
2023-02-22T03:37:57.489Z,83.43
2023-02-22T03:39:04.562Z,83.06
2023-02-22T03:40:14.361Z,83.25
2023-02-22T03:41:24.352Z,83.47
2023-02-22T03:42:34.307Z,83.45
2023-02-22T03:43:45.306Z,83.54
2023-02-22T03:44:50.552Z,83.90
2023-02-22T03:45:54.780Z,84.23
2023-02-22T03:47:02.392Z,84.38
2023-02-22T03:48:21.153Z,84.54
2023-02-22T03:49:47.262Z,84.73
2023-02-22T03:50:51.419Z,85.04
2023-02-22T03:51:54.972Z,85.23
2023-02-22T03:53:01.128Z,85.40
2023-02-22T03:54:05.037Z,85.45
2023-02-22T03:55:11.417Z,85.45
2023-02-22T03:56:23.271Z,85.22
2023-02-22T03:57:30.329Z,85.54
2023-02-22T03:58:37.003Z,85.48
2023-02-22T03:59:41.075Z,85.59
2023-02-22T04:00:44.895Z,85.64
2023-02-22T04:01:48.024Z,85.82
2023-02-22T04:02:51.577Z,85.68
2023-02-22T04:03:54.649Z,85.50
2023-02-22T04:04:57.903Z,85.48
2023-02-22T04:06:00.960Z,85.42
2023-02-22T04:07:04.395Z,85.33
2023-02-22T04:08:08.045Z,85.41
2023-02-22T04:09:11.422Z,85.66
2023-02-22T04:10:17.266Z,85.47
2023-02-22T04:11:22.564Z,85.68
2023-02-22T04:12:25.707Z,85.46
2023-02-22T04:13:29.442Z,85.15
2023-02-22T04:14:32.533Z,84.96
2023-02-22T04:15:35.667Z,85.01
2023-02-22T04:16:38.772Z,85.19
2023-02-22T04:17:42.207Z,85.40
2023-02-22T04:18:46.794Z,85.33
2023-02-22T04:19:50.106Z,85.36
2023-02-22T04:20:53.475Z,85.25
2023-02-22T04:21:58.088Z,85.09
2023-02-22T04:23:01.759Z,85.26
2023-02-22T04:24:05.156Z,84.95
2023-02-22T04:25:09.131Z,85.00
2023-02-22T04:26:12.526Z,85.53
2023-02-22T04:27:16.191Z,85.97
2023-02-22T04:28:19.822Z,86.43
2023-02-22T04:29:23.189Z,86.54
2023-02-22T04:30:28.597Z,86.70
2023-02-22T04:31:34.248Z,86.68
2023-02-22T04:32:38.599Z,86.91
2023-02-22T04:33:41.567Z,87.02
2023-02-22T04:34:44.639Z,87.31
2023-02-22T04:35:47.635Z,87.42
2023-02-22T04:36:50.945Z,87.40
2023-02-22T04:37:54.038Z,87.53
2023-02-22T04:38:57.103Z,87.46
2023-02-22T04:40:00.806Z,87.61
2023-02-22T04:41:03.915Z,87.59
2023-02-22T04:42:07.352Z,87.61
2023-02-22T04:43:10.594Z,87.71
2023-02-22T04:44:14.462Z,87.64
2023-02-22T04:45:17.853Z,87.81
2023-02-22T04:46:20.981Z,87.89
2023-02-22T04:47:24.290Z,87.82
2023-02-22T04:48:28.206Z,87.74
2023-02-22T04:49:31.900Z,87.79
2023-02-22T04:50:35.324Z,87.65
2023-02-22T04:51:38.537Z,87.92
2023-02-22T04:52:41.763Z,87.88
2023-02-22T04:53:44.983Z,87.80
2023-02-22T04:54:48.134Z,87.87
2023-02-22T04:55:51.320Z,87.74
2023-02-22T04:56:54.848Z,87.89
2023-02-22T04:57:58.568Z,87.96
2023-02-22T04:59:03.366Z,87.79
2023-02-22T05:00:07.523Z,87.73
2023-02-22T05:01:16.936Z,87.67
2023-02-22T05:02:20.698Z,87.44
2023-02-22T05:03:23.799Z,87.58
2023-02-22T05:04:27.486Z,87.55
2023-02-22T05:05:30.733Z,87.38
2023-02-22T05:06:34.267Z,86.79
2023-02-22T05:07:38.003Z,86.72
2023-02-22T05:08:41.147Z,86.97
2023-02-22T05:09:44.651Z,87.07
2023-02-22T05:10:47.781Z,87.00
2023-02-22T05:11:50.937Z,87.12
2023-02-22T05:12:54.131Z,87.20
2023-02-22T05:13:57.052Z,87.21
2023-02-22T05:15:00.044Z,87.02
2023-02-22T05:16:04.230Z,87.02
2023-02-22T05:17:07.479Z,87.37
2023-02-22T05:18:10.615Z,87.06
2023-02-22T05:19:14.258Z,87.10
2023-02-22T05:20:30.398Z,87.23
2023-02-22T05:21:36.105Z,87.20
2023-02-22T05:22:39.242Z,87.32
2023-02-22T05:23:42.493Z,87.02
2023-02-22T05:24:45.695Z,87.13
2023-02-22T05:25:48.776Z,87.22
2023-02-22T05:26:53.558Z,87.28
2023-02-22T05:28:08.610Z,87.33
2023-02-22T05:29:12.902Z,87.31
2023-02-22T05:30:16.767Z,87.22
2023-02-22T05:31:24.862Z,87.26
2023-02-22T05:32:28.344Z,86.94
2023-02-22T05:33:31.649Z,86.92
2023-02-22T05:34:34.887Z,87.13
2023-02-22T05:35:38.333Z,87.53
2023-02-22T05:36:41.733Z,87.68
2023-02-22T05:37:45.261Z,87.87
2023-02-22T05:38:49.670Z,87.35
2023-02-22T05:39:53.024Z,87.38
2023-02-22T05:40:57.268Z,87.67
2023-02-22T05:42:00.460Z,87.27
2023-02-22T05:43:03.994Z,87.12
2023-02-22T05:44:07.239Z,87.22
2023-02-22T05:45:14.040Z,87.04
2023-02-22T05:46:17.202Z,87.20
2023-02-22T05:47:20.489Z,87.50
2023-02-22T05:48:24.991Z,87.45
2023-02-22T05:49:28.288Z,87.63
2023-02-22T05:50:33.388Z,87.52
2023-02-22T05:51:36.672Z,87.93
2023-02-22T05:52:39.932Z,87.24
2023-02-22T05:53:42.921Z,87.07
2023-02-22T05:54:46.286Z,86.71
2023-02-22T05:55:49.428Z,86.77
2023-02-22T05:56:52.658Z,86.91
2023-02-22T05:57:55.863Z,87.07
2023-02-22T05:58:59.955Z,87.46
2023-02-22T06:00:05.609Z,87.27
2023-02-22T06:01:09.418Z,87.45
2023-02-22T06:02:12.761Z,87.53
2023-02-22T06:03:16.423Z,87.77
2023-02-22T06:04:20.461Z,87.49
2023-02-22T06:05:23.762Z,87.38
2023-02-22T06:06:26.843Z,87.44
2023-02-22T06:07:30.080Z,87.48
2023-02-22T06:08:34.081Z,87.65
2023-02-22T06:09:37.392Z,87.93
2023-02-22T06:10:40.770Z,87.78
2023-02-22T06:11:44.048Z,87.99
2023-02-22T06:12:48.866Z,88.05
2023-02-22T06:13:53.531Z,87.41
2023-02-22T06:14:56.586Z,86.95
2023-02-22T06:16:00.118Z,87.10
2023-02-22T06:17:03.732Z,87.20
2023-02-22T06:18:07.024Z,87.22
2023-02-22T06:19:11.590Z,87.34
2023-02-22T06:20:17.704Z,86.89
2023-02-22T06:21:21.375Z,86.92
2023-02-22T06:22:24.352Z,86.76
2023-02-22T06:23:27.929Z,86.82
2023-02-22T06:24:31.006Z,86.59
2023-02-22T06:25:34.222Z,86.47
2023-02-22T06:26:37.144Z,86.26
2023-02-22T06:27:41.735Z,86.09
2023-02-22T06:28:47.317Z,86.04
2023-02-22T06:29:50.322Z,85.90
2023-02-22T06:30:53.419Z,86.11
2023-02-22T06:31:57.011Z,86.26
2023-02-22T06:33:00.110Z,85.92
2023-02-22T06:34:03.545Z,86.20
2023-02-22T06:35:07.095Z,86.31
2023-02-22T06:36:10.804Z,86.09
2023-02-22T06:37:13.809Z,86.47
2023-02-22T06:38:25.696Z,86.21
2023-02-22T06:39:29.137Z,86.04
2023-02-22T06:40:32.372Z,88.12
2023-02-22T06:41:38.481Z,88.22
2023-02-22T06:42:41.943Z,87.36
2023-02-22T06:43:47.799Z,87.22
2023-02-22T06:44:53.604Z,86.91
2023-02-22T06:45:56.717Z,85.89
2023-02-22T06:47:00.167Z,85.73
2023-02-22T06:48:03.533Z,86.00
2023-02-22T06:49:09.431Z,85.79
2023-02-22T06:50:35.531Z,85.72
2023-02-22T06:51:39.015Z,85.94
2023-02-22T06:52:45.312Z,85.33
2023-02-22T06:53:48.391Z,84.92
2023-02-22T06:54:52.184Z,85.19
2023-02-22T06:55:55.812Z,84.87
2023-02-22T06:56:58.967Z,84.77
2023-02-22T06:58:03.631Z,84.26
2023-02-22T06:59:07.072Z,84.18
2023-02-22T07:00:11.378Z,84.02
2023-02-22T07:01:14.753Z,84.63
2023-02-22T07:02:18.015Z,84.30
2023-02-22T07:03:21.484Z,83.21
2023-02-22T07:04:24.858Z,83.50
2023-02-22T07:05:28.627Z,83.68
2023-02-22T07:06:31.957Z,83.88
2023-02-22T07:07:35.004Z,83.65
2023-02-22T07:08:38.429Z,83.51
2023-02-22T07:09:43.809Z,83.74
2023-02-22T07:10:50.764Z,83.91
2023-02-22T07:11:53.861Z,83.85
2023-02-22T07:12:56.912Z,83.54
2023-02-22T07:13:59.999Z,83.16
2023-02-22T07:15:02.971Z,82.74
2023-02-22T07:16:06.284Z,82.72
2023-02-22T07:17:09.552Z,82.66
2023-02-22T07:18:14.266Z,82.62
2023-02-22T07:19:17.311Z,82.01
2023-02-22T07:20:21.725Z,81.55
2023-02-22T07:21:25.056Z,80.72
2023-02-22T07:22:28.389Z,80.86
2023-02-22T07:23:31.767Z,81.01
2023-02-22T07:24:35.392Z,81.14
2023-02-22T07:25:38.554Z,80.72
2023-02-22T07:26:42.931Z,80.32
2023-02-22T07:27:46.936Z,79.90
2023-02-22T07:28:50.282Z,79.29
2023-02-22T07:29:53.617Z,78.44
2023-02-22T07:30:56.755Z,76.75
2023-02-22T07:31:59.993Z,75.46
2023-02-22T07:33:08.869Z,75.53
2023-02-22T07:34:13.494Z,74.50
2023-02-22T07:35:18.707Z,73.58
2023-02-22T07:36:21.828Z,73.66
2023-02-22T07:37:24.872Z,73.03
2023-02-22T07:38:29.038Z,72.69
2023-02-22T07:39:32.373Z,73.46
2023-02-22T07:40:36.681Z,73.05
2023-02-22T07:41:39.848Z,72.89
2023-02-22T07:42:56.970Z,72.38
2023-02-22T07:43:59.947Z,72.85
2023-02-22T07:45:03.077Z,72.33
2023-02-22T07:46:06.225Z,72.15
2023-02-22T07:47:13.128Z,71.83
2023-02-22T07:48:17.809Z,71.91
2023-02-22T07:49:21.927Z,72.21
2023-02-22T07:50:26.680Z,71.74
2023-02-22T07:51:29.939Z,71.14
2023-02-22T07:52:33.220Z,70.32
2023-02-22T07:53:37.021Z,69.76
2023-02-22T07:54:40.181Z,69.71
2023-02-22T07:55:43.980Z,69.79
2023-02-22T07:56:50.349Z,70.14
2023-02-22T07:57:56.577Z,68.66
2023-02-22T07:59:01.218Z,68.26
2023-02-22T08:00:05.223Z,68.17
2023-02-22T08:01:08.964Z,68.37
2023-02-22T08:02:17.797Z,68.12
2023-02-22T08:03:24.761Z,68.24
2023-02-22T08:04:27.770Z,67.88
2023-02-22T08:05:34.784Z,67.64
2023-02-22T08:06:38.158Z,67.02
2023-02-22T08:07:41.508Z,66.93
2023-02-22T08:08:45.991Z,66.55
2023-02-22T08:09:49.135Z,66.66
2023-02-22T08:10:53.336Z,66.68
2023-02-22T08:11:56.544Z,67.24
2023-02-22T08:13:00.081Z,67.26
2023-02-22T08:14:03.161Z,67.07
2023-02-22T08:15:08.944Z,66.31
2023-02-22T08:16:12.261Z,65.77
2023-02-22T08:17:15.274Z,65.15
2023-02-22T08:18:20.117Z,65.29
2023-02-22T08:19:23.247Z,64.41
2023-02-22T08:20:26.443Z,62.24
2023-02-22T08:21:30.581Z,61.97
2023-02-22T08:22:33.793Z,61.70
2023-02-22T08:23:37.085Z,61.62
2023-02-22T08:24:40.880Z,61.31
2023-02-22T08:25:44.185Z,61.41
2023-02-22T08:26:48.072Z,60.49
2023-02-22T08:27:51.825Z,59.26
2023-02-22T08:28:55.073Z,58.58
2023-02-22T08:29:58.200Z,58.17
2023-02-22T08:31:01.355Z,55.83
2023-02-22T08:32:05.092Z,56.18
2023-02-22T08:33:08.448Z,54.70
2023-02-22T08:34:11.567Z,54.88
2023-02-22T08:35:16.407Z,54.55
2023-02-22T08:36:19.483Z,53.46
2023-02-22T08:37:23.042Z,53.96
2023-02-22T08:38:30.074Z,54.34
2023-02-22T08:39:33.302Z,54.90
2023-02-22T08:40:38.288Z,53.20
2023-02-22T08:41:41.428Z,53.35
2023-02-22T08:42:45.037Z,54.28
2023-02-22T08:43:48.292Z,55.37
2023-02-22T08:44:54.128Z,55.82
2023-02-22T08:45:57.933Z,56.23
2023-02-22T08:47:01.075Z,55.86
2023-02-22T08:48:04.542Z,56.41
2023-02-22T08:49:09.189Z,57.31
2023-02-22T08:50:19.331Z,58.21
2023-02-22T08:51:22.777Z,58.14
2023-02-22T08:52:26.182Z,58.72
2023-02-22T08:53:33.221Z,59.71
2023-02-22T08:54:36.417Z,60.19
2023-02-22T08:55:40.755Z,59.34
2023-02-22T08:56:44.322Z,58.97
2023-02-22T08:57:47.758Z,59.65
2023-02-22T08:58:50.915Z,60.26
2023-02-22T08:59:54.429Z,60.08
2023-02-22T09:00:58.205Z,60.95
2023-02-22T09:02:03.363Z,61.03
2023-02-22T09:03:15.206Z,60.45
2023-02-22T09:04:18.743Z,59.98
2023-02-22T09:05:24.362Z,58.61
2023-02-22T09:06:27.328Z,56.08
2023-02-22T09:07:30.319Z,57.72
2023-02-22T09:08:33.728Z,57.96
2023-02-22T09:09:37.214Z,58.15
2023-02-22T09:10:40.893Z,57.91
2023-02-22T09:11:44.306Z,58.43
2023-02-22T09:12:47.659Z,58.51
2023-02-22T09:13:50.863Z,57.85
2023-02-22T09:14:53.922Z,58.84
2023-02-22T09:15:57.068Z,58.17
2023-02-22T09:17:00.717Z,58.31
2023-02-22T09:18:06.396Z,58.67
2023-02-22T09:19:10.479Z,57.43
2023-02-22T09:20:15.091Z,56.71
2023-02-22T09:21:18.674Z,55.72
2023-02-22T09:22:22.127Z,54.79
2023-02-22T09:23:26.362Z,55.42
2023-02-22T09:24:29.642Z,55.99
2023-02-22T09:25:34.716Z,56.71
2023-02-22T09:26:43.016Z,55.39
2023-02-22T09:27:51.982Z,55.35
2023-02-22T09:28:55.140Z,55.70
2023-02-22T09:29:58.871Z,55.40
2023-02-22T09:31:02.036Z,55.97
2023-02-22T09:32:06.015Z,55.41
2023-02-22T09:33:18.926Z,54.57
2023-02-22T09:34:29.964Z,54.71
2023-02-22T09:35:36.589Z,54.24
2023-02-22T09:36:44.351Z,54.05
2023-02-22T09:37:47.481Z,54.15
2023-02-22T09:38:53.878Z,54.21
2023-02-22T09:39:57.106Z,55.75
2023-02-22T09:41:55.520Z,56.61
2023-02-22T09:43:32.976Z,57.06
2023-02-22T09:44:54.087Z,57.42
2023-02-22T09:46:13.875Z,58.81
2023-02-22T09:47:33.905Z,59.17
2023-02-22T09:48:51.375Z,59.65
2023-02-22T09:50:02.865Z,59.25
2023-02-22T09:51:18.205Z,58.35
2023-02-22T09:52:28.165Z,58.37
2023-02-22T09:53:37.382Z,58.89
2023-02-22T09:54:45.394Z,58.38
2023-02-22T09:55:53.225Z,57.99
2023-02-22T09:56:58.898Z,56.99
2023-02-22T09:58:13.840Z,55.15
2023-02-22T09:59:24.854Z,55.64
2023-02-22T10:00:41.078Z,55.71
2023-02-22T10:01:48.916Z,55.75
2023-02-22T10:03:10.576Z,56.25
2023-02-22T10:04:22.466Z,55.77
2023-02-22T10:05:34.080Z,53.10
2023-02-22T10:06:40.009Z,53.53
2023-02-22T10:07:54.599Z,54.53
2023-02-22T10:09:08.007Z,54.78
2023-02-22T10:10:19.995Z,54.49
2023-02-22T10:11:48.965Z,53.75
2023-02-22T10:13:06.459Z,53.87
2023-02-22T10:14:31.349Z,54.04
2023-02-22T10:16:06.653Z,54.97
2023-02-22T10:17:20.501Z,55.74
2023-02-22T10:18:48.657Z,55.19
2023-02-22T10:20:00.800Z,57.21
2023-02-22T10:21:31.196Z,59.59
2023-02-22T10:22:40.428Z,62.20
2023-02-22T10:24:04.876Z,62.23
2023-02-22T10:25:19.531Z,62.14
2023-02-22T10:26:37.015Z,62.21
2023-02-22T10:28:03.970Z,62.49
2023-02-22T10:29:17.864Z,62.43
2023-02-22T10:30:34.663Z,61.73
2023-02-22T10:31:47.422Z,61.49
2023-02-22T10:33:17.791Z,64.22
2023-02-22T10:34:31.401Z,64.27
2023-02-22T10:35:38.103Z,64.05
2023-02-22T10:36:44.197Z,64.62
2023-02-22T10:37:48.489Z,65.01
2023-02-22T10:38:57.942Z,64.59
2023-02-22T10:40:14.590Z,64.53
2023-02-22T10:41:37.428Z,65.19
2023-02-22T10:42:40.567Z,64.71
2023-02-22T10:43:44.835Z,64.47
2023-02-22T10:44:48.124Z,64.01
2023-02-22T10:45:56.316Z,63.79
2023-02-22T10:47:03.267Z,63.65
2023-02-22T10:48:15.612Z,63.72
2023-02-22T10:49:24.114Z,63.62
2023-02-22T10:50:29.934Z,63.36
2023-02-22T10:51:34.499Z,63.43
2023-02-22T10:52:37.840Z,63.93
2023-02-22T10:53:41.222Z,64.18
2023-02-22T10:54:48.518Z,65.20
2023-02-22T10:56:15.452Z,64.31
2023-02-22T10:57:32.468Z,63.97
2023-02-22T10:58:54.309Z,64.05
2023-02-22T10:59:58.110Z,63.67
2023-02-22T11:01:17.947Z,63.65
2023-02-22T11:02:27.951Z,63.68
2023-02-22T11:03:31.142Z,63.94
2023-02-22T11:04:52.247Z,64.34
2023-02-22T11:05:55.394Z,63.93
2023-02-22T11:07:01.491Z,63.76
2023-02-22T11:08:28.299Z,63.46
2023-02-22T11:09:31.676Z,64.27
2023-02-22T11:10:39.276Z,64.68
2023-02-22T11:11:46.224Z,64.74
2023-02-22T11:12:51.395Z,64.12
2023-02-22T11:13:55.845Z,64.08
2023-02-22T11:15:24.601Z,65.06
2023-02-22T11:16:41.234Z,64.39
2023-02-22T11:17:46.934Z,63.87
2023-02-22T11:18:50.426Z,64.02
2023-02-22T11:19:53.728Z,63.83
2023-02-22T11:21:02.390Z,63.79
2023-02-22T11:22:05.633Z,64.87
2023-02-22T11:23:09.087Z,65.31
2023-02-22T11:24:15.709Z,64.98
2023-02-22T11:25:23.224Z,65.18
2023-02-22T11:26:26.451Z,64.57
2023-02-22T11:27:44.091Z,64.85
2023-02-22T11:28:51.181Z,66.04
2023-02-22T11:29:59.643Z,64.90
2023-02-22T11:31:16.297Z,64.59
2023-02-22T11:32:22.676Z,64.17
2023-02-22T11:33:29.644Z,65.32
2023-02-22T11:34:37.259Z,64.85
2023-02-22T11:35:54.282Z,65.54
2023-02-22T11:37:15.845Z,65.65
2023-02-22T11:38:21.397Z,65.69
2023-02-22T11:39:32.665Z,65.63
2023-02-22T11:40:35.705Z,66.52
2023-02-22T11:41:38.721Z,65.30
2023-02-22T11:42:42.082Z,66.20
2023-02-22T11:43:48.401Z,65.55
2023-02-22T11:45:10.088Z,65.93
2023-02-22T11:46:26.609Z,66.75
2023-02-22T11:47:31.870Z,66.48
2023-02-22T11:48:39.774Z,66.46
2023-02-22T11:49:46.035Z,66.26
2023-02-22T11:51:14.473Z,66.69
2023-02-22T11:52:41.520Z,66.36
2023-02-22T11:53:57.697Z,67.11
2023-02-22T11:55:42.141Z,67.35
2023-02-22T11:56:50.614Z,65.82
2023-02-22T11:58:14.697Z,67.00
2023-02-22T11:59:42.189Z,66.53
2023-02-22T12:01:12.107Z,66.75
2023-02-22T12:02:15.355Z,66.44
2023-02-22T12:03:34.696Z,66.17
2023-02-22T12:05:12.330Z,66.32
2023-02-22T12:06:28.071Z,66.73
2023-02-22T12:07:50.923Z,67.54
2023-02-22T12:09:07.433Z,68.20
2023-02-22T12:10:40.479Z,68.51
2023-02-22T12:11:46.511Z,68.38
2023-02-22T12:13:17.356Z,67.72
2023-02-22T12:14:32.479Z,67.44
2023-02-22T12:15:56.697Z,67.16
2023-02-22T12:17:31.042Z,67.35
2023-02-22T12:18:50.828Z,67.79
2023-02-22T12:20:10.469Z,67.58
2023-02-22T12:21:20.730Z,67.19
2023-02-22T12:22:28.901Z,67.77
2023-02-22T12:23:45.102Z,68.04
2023-02-22T12:25:14.870Z,68.86
2023-02-22T12:26:38.133Z,68.46
2023-02-22T12:27:50.531Z,66.89
2023-02-22T12:28:53.733Z,66.48
2023-02-22T12:30:07.145Z,66.48
2023-02-22T12:32:03.359Z,66.85
2023-02-22T12:33:26.339Z,68.11
2023-02-22T12:34:36.735Z,67.97
2023-02-22T12:35:51.087Z,67.25
2023-02-22T12:36:59.888Z,67.21
2023-02-22T12:38:31.473Z,67.48
2023-02-22T12:39:58.437Z,67.70
2023-02-22T12:41:06.233Z,67.75
2023-02-22T12:42:17.064Z,67.85
2023-02-22T12:43:24.785Z,67.51
2023-02-22T12:44:38.967Z,66.05
2023-02-22T12:46:18.227Z,65.74
2023-02-22T12:47:28.109Z,65.83
2023-02-22T12:48:40.857Z,66.17
2023-02-22T12:50:00.540Z,66.58
2023-02-22T12:51:22.175Z,66.86
2023-02-22T12:52:46.905Z,66.61
2023-02-22T12:54:13.591Z,66.37
2023-02-22T12:55:29.031Z,66.81
2023-02-22T12:56:42.172Z,67.22
2023-02-22T12:57:48.016Z,67.96
2023-02-22T12:59:03.653Z,67.51
2023-02-22T13:00:28.896Z,67.24
2023-02-22T13:01:40.490Z,67.28
2023-02-22T13:02:54.613Z,67.53
2023-02-22T13:03:57.486Z,67.97
2023-02-22T13:05:02.201Z,68.42
2023-02-22T13:06:13.331Z,67.94
2023-02-22T13:07:37.142Z,67.84
2023-02-22T13:09:06.188Z,68.32
2023-02-22T13:10:26.604Z,68.78
2023-02-22T13:11:48.296Z,68.51
2023-02-22T13:12:57.662Z,68.06
2023-02-22T13:14:19.035Z,68.18
2023-02-22T13:15:28.024Z,68.95
2023-02-22T13:16:52.932Z,69.13
2023-02-22T13:18:41.179Z,69.16
2023-02-22T13:20:08.049Z,68.05
2023-02-22T13:21:51.583Z,68.81
2023-02-22T13:23:25.555Z,68.44
2023-02-22T13:25:02.283Z,68.37
2023-02-22T13:26:08.230Z,68.43
2023-02-22T13:27:24.194Z,68.89
2023-02-22T13:28:46.078Z,68.26
2023-02-22T13:29:55.516Z,69.16
2023-02-22T13:31:28.611Z,69.67
2023-02-22T13:33:03.951Z,68.87
2023-02-22T13:34:16.694Z,68.68
2023-02-22T13:35:52.909Z,67.73
2023-02-22T13:37:06.772Z,67.82
2023-02-22T13:38:12.476Z,66.50
2023-02-22T13:39:46.005Z,65.72
2023-02-22T13:41:17.153Z,65.20
2023-02-22T13:42:38.965Z,65.88
2023-02-22T13:43:59.579Z,65.64
2023-02-22T13:45:20.984Z,65.65
2023-02-22T13:46:47.332Z,66.73
2023-02-22T13:48:24.522Z,67.32
2023-02-22T13:49:39.100Z,62.62
2023-02-22T13:51:09.066Z,62.29
2023-02-22T13:52:23.935Z,63.47
2023-02-22T13:53:33.126Z,61.84
2023-02-22T13:54:51.625Z,61.67
2023-02-22T13:55:58.657Z,60.10
2023-02-22T13:57:05.977Z,59.43
2023-02-22T13:58:12.954Z,59.80
2023-02-22T13:59:36.345Z,60.78
2023-02-22T14:00:57.674Z,60.44
2023-02-22T14:02:04.718Z,60.35
2023-02-22T14:03:13.512Z,60.14
2023-02-22T14:04:28.683Z,61.27
2023-02-22T14:05:44.910Z,61.64
2023-02-22T14:06:48.124Z,60.86
2023-02-22T14:07:51.085Z,60.28
2023-02-22T14:08:54.671Z,60.17
2023-02-22T14:10:01.923Z,60.36
2023-02-22T14:11:14.391Z,61.20
2023-02-22T14:12:30.202Z,60.99
2023-02-22T14:13:56.088Z,59.93
2023-02-22T14:15:27.746Z,59.77
2023-02-22T14:16:34.106Z,60.71
2023-02-22T14:17:39.735Z,59.85
2023-02-22T14:18:46.177Z,60.56
2023-02-22T14:20:21.950Z,61.07
2023-02-22T14:21:24.978Z,59.99
2023-02-22T14:22:29.377Z,60.12
2023-02-22T14:23:41.594Z,59.86
2023-02-22T14:24:47.057Z,60.85
2023-02-22T14:25:51.032Z,60.78
2023-02-22T14:27:03.789Z,60.88
2023-02-22T14:28:30.460Z,60.51
2023-02-22T14:29:35.270Z,60.07
2023-02-22T14:30:40.342Z,59.62
2023-02-22T14:31:43.605Z,59.90
2023-02-22T14:32:49.171Z,60.45
2023-02-22T14:33:52.571Z,60.77
2023-02-22T14:34:58.399Z,60.88
2023-02-22T14:36:01.344Z,61.04
2023-02-22T14:37:13.204Z,61.28
2023-02-22T14:38:20.222Z,61.15
2023-02-22T14:39:26.397Z,61.30
2023-02-22T14:40:36.475Z,60.88
2023-02-22T14:42:05.838Z,61.42
2023-02-22T14:43:15.178Z,61.29
2023-02-22T14:44:24.379Z,60.61
2023-02-22T14:45:36.092Z,59.93
2023-02-22T14:46:42.972Z,59.86
2023-02-22T14:48:18.029Z,59.86
2023-02-22T14:49:25.601Z,59.79
2023-02-22T14:50:53.410Z,60.34
2023-02-22T14:52:04.108Z,58.92